Time;durP1;ratioP1;P1;durP2;ratioP2;P2;SDS_P1;SDS_P2;PMS_P1;PMS_P2;Temp;Humidity;BMP_temperature;BMP_pressure;BME280_temperature;BME280_humidity;BME280_pressure;Samples;Min_cycle;Max_cycle;Signal;HPM_P1;HPM_P2
2021/05/27 00:00:48;;;;;;;;;;;;;;;9.46;80.31;95726.97;1800237;80;20142;-66
2021/05/27 00:03:16;;;;;;;;;;;;;;;9.38;80.87;95721.80;1799892;79;20174;-67
2021/05/27 00:05:42;;;;;;;;;;;;;;;9.47;80.87;95722.11;1753899;81;20159;-67
2021/05/27 00:08:08;;;;;;;;;;;;;;;9.59;80.95;95718.47;1771108;80;20139;-67
2021/05/27 00:10:36;;;;;;;;;;;;;;;9.63;80.83;95715.78;1771017;80;20175;-67
2021/05/27 00:13:04;;;;;;;;;;;;;;;9.61;81.10;95720.64;1771066;80;20143;-66
2021/05/27 00:15:31;;;;;;;;;;;;;;;9.56;81.07;95715.88;1770963;81;20159;-66
2021/05/27 00:17:58;;;;;;;;;;;;;;;9.51;81.13;95718.56;1771431;79;20163;-66
2021/05/27 00:20:26;;;;;;;;;;;;;;;9.42;81.30;95716.90;1820309;79;20168;-66
2021/05/27 00:22:52;;;;;;;;;;;;;;;9.29;81.34;95714.86;1819952;79;20181;-66
2021/05/27 00:25:19;;;;;;;;;;;;;;;9.21;81.20;95714.53;1820207;79;20145;-66
2021/05/27 00:27:46;;;;;;;;;;;;;;;9.20;81.50;95713.67;1820175;79;20172;-66
2021/05/27 00:30:15;;;;;;;;;;;;;;;9.21;81.65;95717.17;1819988;79;20545;-66
2021/05/27 00:32:42;;;;;;;;;;;;;;;9.25;81.36;95720.20;1820074;79;20532;-66
2021/05/27 00:35:09;;;;;;;;;;;;;;;9.27;80.80;95711.81;1820169;79;20153;-67
2021/05/27 00:37:36;;;;;;;;;;;;;;;9.27;80.66;95711.81;1820208;79;20501;-67
2021/05/27 00:40:05;;;;;;;;;;;;;;;9.29;80.79;95708.73;1819991;79;20148;-67
2021/05/27 00:42:31;;;;;;;;;;;;;;;9.26;80.60;95704.37;1819968;79;20141;-66
2021/05/27 00:45:03;;;;;;;;;;;;;;;9.26;80.64;95707.00;1820046;79;20149;-66
2021/05/27 00:47:30;;;;;;;;;;;;;;;9.17;81.81;95704.50;1820206;79;20454;-66
2021/05/27 00:49:56;;;;;;;;;;;;;;;9.12;82.15;95705.41;1820173;79;20153;-66
2021/05/27 00:52:23;;;;;;;;;;;;;;;9.02;81.30;95705.95;1820466;79;20141;-66
2021/05/27 00:54:50;;;;;;;;;;;;;;;8.93;81.01;95708.70;1820179;79;20129;-66
2021/05/27 00:57:35;;;;;;;;;;;;;;;8.88;81.03;95710.06;1820112;79;20188;-66
2021/05/27 01:00:06;;;;;;;;;;;;;;;8.81;81.46;95714.50;1820328;79;20490;-66
2021/05/27 01:02:32;;;;;;;;;;;;;;;8.79;81.39;95713.64;1820688;79;20161;-65
2021/05/27 01:04:59;;;;;;;;;;;;;;;8.79;82.07;95712.32;1820170;79;20501;-65
2021/05/27 01:07:26;;;;;;;;;;;;;;;8.74;81.53;95709.31;1820309;79;20125;-65
2021/05/27 01:09:52;;;;;;;;;;;;;;;8.73;81.45;95710.21;1820394;79;20165;-66
2021/05/27 01:12:19;;;;;;;;;;;;;;;8.71;81.80;95714.61;1820128;79;20544;-66
2021/05/27 01:17:31;;;;;;;;;;;;;;;8.59;83.08;95722.16;1820125;79;20160;-66
2021/05/27 01:19:58;;;;;;;;;;;;;;;8.52;83.62;95715.23;1805567;79;20154;-66
2021/05/27 01:22:25;;;;;;;;;;;;;;;8.51;83.37;95720.91;1802705;80;20150;-66
2021/05/27 01:24:53;;;;;;;;;;;;;;;8.56;82.91;95715.63;1802808;80;20151;-66
2021/05/27 01:27:20;;;;;;;;;;;;;;;8.66;82.83;95714.65;1802704;80;20138;-66
2021/05/27 01:29:52;;;;;;;;;;;;;;;8.73;82.70;95710.21;1802671;80;20486;-66
2021/05/27 01:32:19;;;;;;;;;;;;;;;8.73;82.60;95711.53;1802742;80;20151;-65
2021/05/27 01:34:46;;;;;;;;;;;;;;;8.65;83.40;95705.89;1802725;80;20182;-65
2021/05/27 01:37:13;;;;;;;;;;;;;;;8.61;83.46;95706.80;1802908;80;20201;-65
2021/05/27 01:39:45;;;;;;;;;;;;;;;8.58;83.74;95705.52;1802421;80;20507;-65
2021/05/27 01:42:11;;;;;;;;;;;;;;;8.55;83.57;95707.31;1773850;80;20479;-66
2021/05/27 01:44:38;;;;;;;;;;;;;;;8.50;83.97;95712.61;1802710;80;20218;-66
2021/05/27 01:47:04;;;;;;;;;;;;;;;8.54;83.61;95706.45;1802594;80;20139;-66
2021/05/27 01:49:31;;;;;;;;;;;;;;;8.59;83.11;95710.33;1802683;80;20142;-66
2021/05/27 01:51:57;;;;;;;;;;;;;;;8.66;82.79;95712.88;1802574;80;20211;-66
2021/05/27 01:54:24;;;;;;;;;;;;;;;8.74;82.54;95713.26;1802468;80;20534;-66
2021/05/27 01:56:51;;;;;;;;;;;;;;;8.76;82.37;95716.30;1802654;80;20214;-66
2021/05/27 01:59:18;;;;;;;;;;;;;;;8.87;82.38;95709.64;1802407;80;20170;-66
2021/05/27 02:01:46;;;;;;;;;;;;;;;8.89;82.17;95711.79;1802685;80;20215;-66
2021/05/27 02:04:12;;;;;;;;;;;;;;;8.90;82.10;95705.66;1801592;80;20155;-66
2021/05/27 02:06:39;;;;;;;;;;;;;;;8.79;81.91;95704.88;1796668;80;20468;-66
2021/05/27 02:09:11;;;;;;;;;;;;;;;8.64;81.57;95705.89;1766083;80;20171;-66
2021/05/27 02:11:54;;;;;;;;;;;;;;;8.59;82.21;95705.06;1795888;80;20207;-65
2021/05/27 02:14:21;;;;;;;;;;;;;;;8.49;82.34;95719.18;1796670;80;20504;-65
2021/05/27 02:16:48;;;;;;;;;;;;;;;8.42;82.26;95716.62;1796803;80;20494;-66
2021/05/27 02:19:15;;;;;;;;;;;;;;;8.36;82.95;95715.30;1800772;80;20495;-66
2021/05/27 02:21:43;;;;;;;;;;;;;;;8.35;82.64;95712.70;1803935;80;20155;-66
2021/05/27 02:24:11;;;;;;;;;;;;;;;8.36;82.45;95707.86;1803567;80;20273;-66
2021/05/27 02:26:38;;;;;;;;;;;;;;;8.45;82.98;95699.94;1803860;80;20178;-66
2021/05/27 02:29:09;;;;;;;;;;;;;;;8.49;83.22;95700.77;1802757;80;20146;-66
2021/05/27 02:31:40;;;;;;;;;;;;;;;8.54;83.24;95699.88;1804182;80;20214;-66
2021/05/27 02:34:08;;;;;;;;;;;;;;;8.55;83.61;95702.92;1803909;80;20209;-66
2021/05/27 02:36:36;;;;;;;;;;;;;;;8.57;83.37;95698.52;1804182;80;20483;-66
2021/05/27 02:39:04;;;;;;;;;;;;;;;8.52;83.25;95704.72;1804034;80;20182;-66
2021/05/27 02:41:41;;;;;;;;;;;;;;;8.48;82.91;95708.25;1802616;80;20250;-66
2021/05/27 02:44:08;;;;;;;;;;;;;;;8.40;82.46;95704.38;1803978;80;20218;-65
2021/05/27 02:46:36;;;;;;;;;;;;;;;8.41;83.05;95706.10;1802403;80;20162;-66
2021/05/27 02:49:04;;;;;;;;;;;;;;;8.52;82.81;95703.41;1803874;80;20147;-66
2021/05/27 02:51:33;;;;;;;;;;;;;;;8.55;82.52;95701.60;1803641;80;20174;-66
2021/05/27 02:53:59;;;;;;;;;;;;;;;8.58;82.36;95702.88;1804119;80;20122;-66
2021/05/27 02:56:26;;;;;;;;;;;;;;;8.58;82.36;95698.94;1803571;80;20138;-66
2021/05/27 02:58:53;;;;;;;;;;;;;;;8.49;82.40;95702.95;1804136;80;20173;-66
2021/05/27 03:01:20;;;;;;;;;;;;;;;8.47;82.20;95706.48;1771033;80;20222;-66
2021/05/27 03:03:51;;;;;;;;;;;;;;;8.47;82.04;95708.70;1804059;80;20202;-66
2021/05/27 03:06:18;;;;;;;;;;;;;;;8.51;81.97;95702.95;1802004;79;20470;-66
2021/05/27 03:08:47;;;;;;;;;;;;;;;8.45;82.13;95704.75;1802074;80;20174;-66
2021/05/27 03:11:13;;;;;;;;;;;;;;;8.38;82.58;95713.98;1801891;80;20146;-66
2021/05/27 03:13:40;;;;;;;;;;;;;;;8.42;82.89;95710.50;1801977;80;20525;-66
2021/05/27 03:16:08;;;;;;;;;;;;;;;8.49;83.27;95702.95;1802266;80;20158;-66
2021/05/27 03:18:35;;;;;;;;;;;;;;;8.51;83.06;95705.13;1802051;80;20205;-66
2021/05/27 03:21:03;;;;;;;;;;;;;;;8.49;83.13;95714.79;1802043;80;20147;-65
2021/05/27 03:23:31;;;;;;;;;;;;;;;8.44;83.57;95712.22;1801757;80;20190;-67
2021/05/27 03:25:59;;;;;;;;;;;;;;;8.38;83.02;95712.67;1773593;80;20199;-66
2021/05/27 03:28:25;;;;;;;;;;;;;;;8.28;83.48;95714.95;1802074;80;20163;-66
2021/05/27 03:30:54;;;;;;;;;;;;;;;8.31;83.94;95720.17;1801641;80;20253;-66
2021/05/27 03:33:20;;;;;;;;;;;;;;;8.36;83.51;95722.33;1802154;80;20174;-66
2021/05/27 03:35:47;;;;;;;;;;;;;;;8.47;83.72;95710.42;1802255;80;20154;-66
2021/05/27 03:38:13;;;;;;;;;;;;;;;8.52;84.13;95707.34;1801569;80;20192;-67
2021/05/27 03:40:40;;;;;;;;;;;;;;;8.61;84.58;95708.11;1802015;80;20210;-67
2021/05/27 03:43:08;;;;;;;;;;;;;;;8.75;84.25;95706.68;1801976;80;20175;-66
2021/05/27 03:45:35;;;;;;;;;;;;;;;8.81;84.45;95710.55;1801780;80;20154;-66
2021/05/27 03:48:04;;;;;;;;;;;;;;;8.86;84.76;95711.83;1798546;80;20226;-66
2021/05/27 03:50:32;;;;;;;;;;;;;;;8.97;84.53;95707.77;1801945;80;20139;-66
2021/05/27 03:53:00;;;;;;;;;;;;;;;9.05;84.25;95705.49;1801835;80;20174;-66
2021/05/27 03:55:27;;;;;;;;;;;;;;;9.10;84.30;95705.00;1801623;80;20143;-66
2021/05/27 03:57:54;;;;;;;;;;;;;;;9.26;84.26;95706.14;1773050;80;20511;-66
2021/05/27 04:03:10;;;;;;;;;;;;;;;9.50;84.02;95703.66;1802091;80;20218;-67
2021/05/27 04:08:24;;;;;;;;;;;;;;;9.69;83.80;95699.01;1836422;78;20136;-65
2021/05/27 04:10:50;;;;;;;;;;;;;;;9.77;83.58;95696.27;1836070;78;20144;-65
2021/05/27 04:13:17;;;;;;;;;;;;;;;9.83;83.44;95690.94;1836257;78;20497;-65
2021/05/27 04:15:44;;;;;;;;;;;;;;;9.94;83.35;95696.45;1836370;78;20168;-65
2021/05/27 04:18:16;;;;;;;;;;;;;;;10.05;83.13;95696.73;1828533;78;20171;-65
2021/05/27 04:20:58;;;;;;;;;;;;;;;10.07;82.82;95699.78;1747157;81;20157;-65
2021/05/27 04:23:34;;;;;;;;;;;;;;;10.11;83.14;95700.63;1747251;82;20220;-65
2021/05/27 04:26:06;;;;;;;;;;;;;;;10.17;83.16;95690.83;1747322;82;20229;-65
2021/05/27 04:28:32;;;;;;;;;;;;;;;10.28;83.09;95689.83;1747192;81;20169;-65
2021/05/27 04:31:11;;;;;;;;;;;;;;;10.40;83.20;95687.86;1747269;81;20157;-65
2021/05/27 04:33:47;;;;;;;;;;;;;;;10.52;83.21;95685.47;1747342;81;20157;-65
2021/05/27 04:36:15;;;;;;;;;;;;;;;10.52;83.92;95689.43;1747360;82;20153;-65
2021/05/27 04:38:42;;;;;;;;;;;;;;;10.59;83.01;95687.57;1747346;82;20201;-64
2021/05/27 04:41:09;;;;;;;;;;;;;;;10.70;82.81;95690.88;1747193;82;20149;-65
2021/05/27 04:43:38;;;;;;;;;;;;;;;10.81;82.73;95690.26;1747392;82;20162;-65
2021/05/27 04:46:05;;;;;;;;;;;;;;;10.93;82.51;95694.42;1747379;82;20506;-65
2021/05/27 04:48:31;;;;;;;;;;;;;;;11.07;82.33;95692.86;1728532;82;20142;-65
2021/05/27 04:50:58;;;;;;;;;;;;;;;11.10;82.30;95700.72;1748575;78;20229;-65
2021/05/27 04:53:25;;;;;;;;;;;;;;;11.21;82.25;95696.12;1747428;82;20129;-62
2021/05/27 04:55:52;;;;;;;;;;;;;;;11.35;82.33;95701.57;1728243;82;20168;-66
2021/05/27 04:58:19;;;;;;;;;;;;;;;11.48;81.89;95696.45;1747320;82;20146;-62
2021/05/27 05:00:47;;;;;;;;;;;;;;;11.64;81.77;95701.85;1747221;82;20125;-62
2021/05/27 05:03:14;;;;;;;;;;;;;;;11.79;81.60;95695.37;1747259;82;20165;-64
2021/05/27 05:05:40;;;;;;;;;;;;;;;12.01;81.34;95690.95;1768736;79;20159;-63
2021/05/27 05:08:07;;;;;;;;;;;;;;;12.17;80.36;95688.39;1796625;80;20226;-62
2021/05/27 05:10:34;;;;;;;;;;;;;;;12.36;79.97;95677.36;1796676;80;20166;-64
2021/05/27 05:13:01;;;;;;;;;;;;;;;12.55;80.04;95678.19;1796607;80;20467;-63
2021/05/27 05:15:30;;;;;;;;;;;;;;;12.75;80.01;95674.14;1796895;80;20139;-60
2021/05/27 05:18:05;;;;;;;;;;;;;;;12.91;80.01;95678.61;1796651;80;20143;-63
2021/05/27 05:20:34;;;;;;;;;;;;;;;13.02;78.09;95680.97;1796018;80;20135;-62
2021/05/27 05:23:01;;;;;;;;;;;;;;;13.13;78.56;95681.10;1799912;80;20224;-64
2021/05/27 05:25:29;;;;;;;;;;;;;;;13.30;78.21;95675.81;1800468;80;20163;-65
2021/05/27 05:27:56;;;;;;;;;;;;;;;13.36;77.46;95676.98;1800632;80;20154;-64
2021/05/27 05:30:24;;;;;;;;;;;;;;;13.40;77.40;95675.50;1800497;80;20154;-64
2021/05/27 05:32:50;;;;;;;;;;;;;;;13.57;77.83;95673.70;1800965;80;20139;-65
2021/05/27 05:35:18;;;;;;;;;;;;;;;13.76;77.93;95681.14;1800528;80;20479;-63
2021/05/27 05:37:46;;;;;;;;;;;;;;;13.96;77.87;95678.75;1800487;80;20475;-63
2021/05/27 05:40:16;;;;;;;;;;;;;;;14.15;77.58;95675.52;1800599;80;20583;-64
2021/05/27 05:42:43;;;;;;;;;;;;;;;14.35;77.09;95676.22;1800652;80;20218;-63
2021/05/27 05:45:12;;;;;;;;;;;;;;;14.47;72.85;95681.14;1800509;80;20139;-62
2021/05/27 05:47:39;;;;;;;;;;;;;;;14.58;70.03;95671.52;1800724;80;20203;-64
2021/05/27 05:50:08;;;;;;;;;;;;;;;14.71;71.18;95674.16;1800489;80;20147;-66
2021/05/27 05:52:35;;;;;;;;;;;;;;;14.84;70.47;95670.20;1800552;80;20182;-66
2021/05/27 05:55:03;;;;;;;;;;;;;;;14.92;68.05;95673.92;1814735;78;20199;-62
2021/05/27 05:57:29;;;;;;;;;;;;;;;14.99;66.89;95686.52;1833090;78;20516;-64
2021/05/27 05:59:56;;;;;;;;;;;;;;;15.01;65.40;95680.23;1833067;78;20176;-64
2021/05/27 06:02:22;;;;;;;;;;;;;;;15.04;63.18;95680.11;1833473;78;20168;-65
2021/05/27 06:04:49;;;;;;;;;;;;;;;15.14;64.11;95684.22;1833216;78;20149;-64
2021/05/27 06:07:29;;;;;;;;;;;;;;;15.20;61.94;95685.78;1831444;78;20168;-63
2021/05/27 06:09:55;;;;;;;;;;;;;;;15.28;62.41;95681.05;1833309;78;20481;-64
2021/05/27 06:12:21;;;;;;;;;;;;;;;15.37;60.91;95678.52;1833188;78;20149;-61
2021/05/27 06:14:47;;;;;;;;;;;;;;;15.46;62.12;95676.86;1833380;78;20530;-65
2021/05/27 06:17:14;;;;;;;;;;;;;;;15.53;59.91;95676.19;1833162;78;20156;-65
2021/05/27 06:19:40;;;;;;;;;;;;;;;15.62;60.32;95680.28;1833164;78;20132;-66
2021/05/27 06:22:08;;;;;;;;;;;;;;;15.70;59.18;95675.14;1831204;78;20157;-64
2021/05/27 06:24:48;;;;;;;;;;;;;;;15.79;59.56;95667.26;1832270;78;20156;-66
2021/05/27 06:27:15;;;;;;;;;;;;;;;15.87;58.17;95671.81;1832972;78;20200;-65
2021/05/27 06:29:41;;;;;;;;;;;;;;;15.94;57.53;95665.81;1833458;78;20156;-64
2021/05/27 06:32:07;;;;;;;;;;;;;;;16.03;57.99;95660.58;1833571;78;20137;-65
2021/05/27 06:34:33;;;;;;;;;;;;;;;16.06;54.92;95661.81;1833182;78;20129;-64
2021/05/27 06:36:59;;;;;;;;;;;;;;;16.14;56.62;95653.92;1833395;78;20192;-66
2021/05/27 06:39:26;;;;;;;;;;;;;;;16.18;55.75;95656.02;1833176;78;20573;-64
2021/05/27 06:41:55;;;;;;;;;;;;;;;16.29;57.33;95655.58;1801173;78;20176;-64
2021/05/27 06:44:20;;;;;;;;;;;;;;;16.43;57.43;95648.77;1833084;78;20148;-65
2021/05/27 06:46:46;;;;;;;;;;;;;;;16.56;55.99;95655.80;1833344;78;20124;-64
2021/05/27 06:49:12;;;;;;;;;;;;;;;16.68;56.90;95652.20;1833209;78;20144;-63
2021/05/27 06:51:40;;;;;;;;;;;;;;;16.79;57.13;95656.67;1833128;78;20140;-66
2021/05/27 06:54:09;;;;;;;;;;;;;;;16.92;56.95;95660.55;1833002;78;20217;-64
2021/05/27 06:56:37;;;;;;;;;;;;;;;17.02;56.29;95656.55;1833049;78;20164;-66
2021/05/27 06:59:03;;;;;;;;;;;;;;;17.09;54.79;95666.02;1833084;78;20183;-65
2021/05/27 07:01:29;;;;;;;;;;;;;;;17.18;53.88;95666.08;1833044;78;20144;-64
2021/05/27 07:03:55;;;;;;;;;;;;;;;17.26;55.05;95667.97;1833138;78;20220;-65
2021/05/27 07:06:22;;;;;;;;;;;;;;;17.37;56.43;95667.48;1833094;78;20153;-64
2021/05/27 07:08:48;;;;;;;;;;;;;;;17.48;55.59;95663.86;1832931;78;20294;-67
2021/05/27 07:11:14;;;;;;;;;;;;;;;17.54;54.17;95665.41;1833019;78;20481;-65
2021/05/27 07:13:40;;;;;;;;;;;;;;;17.56;51.96;95670.19;1832993;78;20132;-64
2021/05/27 07:16:06;;;;;;;;;;;;;;;17.58;53.02;95662.13;1833034;78;20480;-64
2021/05/27 07:18:33;;;;;;;;;;;;;;;17.65;52.61;95668.92;1833303;78;20168;-64
2021/05/27 07:20:58;;;;;;;;;;;;;;;17.68;50.65;95668.78;1833317;78;20536;-64
2021/05/27 07:23:24;;;;;;;;;;;;;;;17.74;49.56;95658.70;1832941;78;20148;-64
2021/05/27 07:25:51;;;;;;;;;;;;;;;17.80;49.75;95660.72;1833319;78;20187;-65
2021/05/27 07:28:22;;;;;;;;;;;;;;;17.83;49.06;95660.58;1833292;78;20157;-65
2021/05/27 07:30:45;;;;;;;;;;;;;;;17.93;50.61;95669.89;1832272;78;20176;-64
2021/05/27 07:33:11;;;;;;;;;;;;;;;17.98;50.02;95673.21;1833088;78;20224;-64
2021/05/27 07:35:37;;;;;;;;;;;;;;;18.02;48.98;95665.95;1833215;78;20144;-64
2021/05/27 07:38:03;;;;;;;;;;;;;;;18.10;48.48;95669.11;1832969;78;20168;-63
2021/05/27 07:40:29;;;;;;;;;;;;;;;18.18;48.82;95673.62;1833081;78;20164;-62
2021/05/27 07:42:57;;;;;;;;;;;;;;;18.17;49.20;95663.88;1833276;78;20125;-61
2021/05/27 07:45:23;;;;;;;;;;;;;;;18.32;49.53;95666.27;1833013;78;20513;-64
2021/05/27 07:47:49;;;;;;;;;;;;;;;18.43;49.86;95662.63;1833096;78;20512;-65
2021/05/27 07:50:20;;;;;;;;;;;;;;;18.55;48.14;95658.50;1832781;78;20231;-65
2021/05/27 07:52:43;;;;;;;;;;;;;;;18.71;49.15;95654.59;1832453;78;20156;-65
2021/05/27 07:55:10;;;;;;;;;;;;;;;18.84;49.54;95662.42;1832993;78;20153;-65
2021/05/27 07:57:37;;;;;;;;;;;;;;;18.94;48.08;95658.81;1832910;78;20212;-64
2021/05/27 08:00:07;;;;;;;;;;;;;;;18.98;45.66;95658.59;1833273;78;20216;-64
2021/05/27 08:02:35;;;;;;;;;;;;;;;19.12;48.97;95660.55;1832498;78;20152;-65
2021/05/27 08:05:01;;;;;;;;;;;;;;;19.18;45.11;95660.73;1832907;78;20481;-62
2021/05/27 08:07:28;;;;;;;;;;;;;;;19.18;45.32;95656.23;1835813;78;20160;-64
2021/05/27 08:09:54;;;;;;;;;;;;;;;19.22;46.59;95651.10;1836820;78;20161;-63
2021/05/27 08:12:20;;;;;;;;;;;;;;;19.19;47.96;95645.92;1836616;78;20171;-63
2021/05/27 08:14:47;;;;;;;;;;;;;;;19.31;47.54;95643.09;1836814;78;20235;-62
2021/05/27 08:17:13;;;;;;;;;;;;;;;19.42;47.33;95645.20;1836566;78;20238;-62
2021/05/27 08:19:39;;;;;;;;;;;;;;;19.43;47.49;95637.09;1836652;78;20180;-62
2021/05/27 08:22:06;;;;;;;;;;;;;;;19.52;49.04;95636.21;1836703;78;20141;-62
2021/05/27 08:24:32;;;;;;;;;;;;;;;19.67;47.68;95638.95;1836662;78;20172;-62
2021/05/27 08:27:00;;;;;;;;;;;;;;;19.72;45.49;95632.50;1836439;78;20136;-62
2021/05/27 08:29:26;;;;;;;;;;;;;;;19.82;45.69;95631.91;1836663;78;20148;-65
2021/05/27 08:31:53;;;;;;;;;;;;;;;19.92;45.20;95633.62;1809173;78;20172;-63
2021/05/27 08:34:19;;;;;;;;;;;;;;;19.96;47.35;95641.88;1836813;78;20144;-63
2021/05/27 08:36:46;;;;;;;;;;;;;;;20.05;46.30;95633.32;1836475;78;20132;-62
2021/05/27 08:39:12;;;;;;;;;;;;;;;20.05;42.23;95625.77;1836552;78;20235;-63
2021/05/27 08:41:39;;;;;;;;;;;;;;;20.16;45.23;95633.20;1836837;78;20127;-63
2021/05/27 08:44:05;;;;;;;;;;;;;;;20.24;44.49;95633.66;1836704;78;20144;-62
2021/05/27 08:46:32;;;;;;;;;;;;;;;20.36;45.72;95622.25;1836573;78;21056;-63
2021/05/27 08:49:00;;;;;;;;;;;;;;;20.46;46.74;95624.80;1836577;78;20528;-61
2021/05/27 08:51:33;;;;;;;;;;;;;;;20.61;46.61;95619.52;1835552;78;20187;-61
2021/05/27 08:53:56;;;;;;;;;;;;;;;20.72;45.96;95618.44;1835972;78;20128;-62
2021/05/27 08:56:22;;;;;;;;;;;;;;;20.72;44.39;95614.41;1836707;78;20298;-62
2021/05/27 08:58:48;;;;;;;;;;;;;;;20.75;45.14;95611.55;1836492;78;20152;-64
2021/05/27 09:01:20;;;;;;;;;;;;;;;20.85;45.09;95611.39;1836443;78;20128;-63
2021/05/27 09:03:45;;;;;;;;;;;;;;;20.89;44.74;95606.24;1835997;78;20239;-63
2021/05/27 09:06:12;;;;;;;;;;;;;;;20.91;44.38;95611.02;1835982;78;20204;-62
2021/05/27 09:08:39;;;;;;;;;;;;;;;21.01;45.55;95607.80;1833020;78;20133;-62
2021/05/27 09:11:14;;;;;;;;;;;;;;;21.10;44.07;95599.20;1833193;78;20136;-63
2021/05/27 09:13:52;;;;;;;;;;;;;;;21.19;43.99;95599.97;1833257;78;20458;-62
2021/05/27 09:16:19;;;;;;;;;;;;;;;21.23;46.39;95600.67;1833276;78;20505;-62
2021/05/27 09:18:45;;;;;;;;;;;;;;;21.47;46.78;95605.04;1833336;78;20152;-62
2021/05/27 09:21:14;;;;;;;;;;;;;;;21.59;46.31;95599.77;1833311;78;20136;-62
2021/05/27 09:23:47;;;;;;;;;;;;;;;21.68;45.68;95597.02;1833128;78;20149;-62
2021/05/27 09:26:15;;;;;;;;;;;;;;;21.73;49.21;95601.61;1833434;78;20176;-62
2021/05/27 09:28:43;;;;;;;;;;;;;;;21.90;43.16;95596.98;1833051;78;20141;-63
2021/05/27 09:31:15;;;;;;;;;;;;;;;21.95;44.96;95603.81;1833336;78;20161;-62
2021/05/27 09:33:44;;;;;;;;;;;;;;;21.91;41.66;95600.08;1832999;78;20152;-62
2021/05/27 09:36:16;;;;;;;;;;;;;;;21.75;40.75;95597.02;1833137;78;20140;-62
2021/05/27 09:38:48;;;;;;;;;;;;;;;21.85;44.72;95591.93;1832293;78;20168;-62
2021/05/27 09:41:20;;;;;;;;;;;;;;;21.97;42.92;95588.92;1833073;78;20140;-63
2021/05/27 09:43:56;;;;;;;;;;;;;;;22.14;46.61;95587.86;1833090;78;20136;-63
2021/05/27 09:46:24;;;;;;;;;;;;;;;22.24;46.25;95587.19;1833673;78;20172;-63
2021/05/27 09:49:05;;;;;;;;;;;;;;;22.41;44.54;95579.86;1833114;78;20164;-62
2021/05/27 09:51:31;;;;;;;;;;;;;;;22.55;45.94;95582.97;1833177;78;20469;-62
2021/05/27 09:53:59;;;;;;;;;;;;;;;22.80;46.32;95587.58;1833292;78;20176;-62
2021/05/27 09:56:38;;;;;;;;;;;;;;;22.81;42.52;95578.07;1833118;78;20136;-62
2021/05/27 09:59:06;;;;;;;;;;;;;;;22.87;43.29;95581.68;1833103;78;20140;-63
2021/05/27 10:01:32;;;;;;;;;;;;;;;22.99;41.52;95581.86;1833230;78;20156;-62
2021/05/27 10:04:16;;;;;;;;;;;;;;;22.97;42.67;95580.61;1833080;78;20148;-62
2021/05/27 10:06:43;;;;;;;;;;;;;;;22.95;42.30;95577.12;1834349;78;20187;-62
2021/05/27 10:09:11;;;;;;;;;;;;;;;23.13;43.05;95572.83;1836661;78;20489;-62
2021/05/27 10:11:39;;;;;;;;;;;;;;;23.21;44.59;95570.47;1836642;78;20472;-62
2021/05/27 10:14:07;;;;;;;;;;;;;;;23.28;41.85;95564.58;1836800;78;20224;-62
2021/05/27 10:16:35;;;;;;;;;;;;;;;23.29;39.27;95562.75;1836737;78;20201;-62
2021/05/27 10:19:03;;;;;;;;;;;;;;;23.28;41.45;95555.62;1836566;78;20156;-63
2021/05/27 10:21:29;;;;;;;;;;;;;;;23.35;44.74;95556.06;1836795;78;20144;-62
2021/05/27 10:23:55;;;;;;;;;;;;;;;23.46;40.13;95561.09;1836849;78;20141;-62
2021/05/27 10:26:22;;;;;;;;;;;;;;;23.31;41.29;95556.78;1836664;78;20144;-62
2021/05/27 10:28:52;;;;;;;;;;;;;;;23.34;40.93;95552.52;1836650;78;20211;-62
2021/05/27 10:31:24;;;;;;;;;;;;;;;23.18;42.68;95553.19;1836763;78;20133;-62
2021/05/27 10:33:52;;;;;;;;;;;;;;;23.26;39.32;95551.70;1836653;78;20120;-62
2021/05/27 10:36:19;;;;;;;;;;;;;;;23.52;42.01;95546.32;1836721;78;20144;-62
2021/05/27 10:38:50;;;;;;;;;;;;;;;23.71;43.25;95534.63;1836635;78;20244;-63
2021/05/27 10:41:31;;;;;;;;;;;;;;;23.88;41.86;95532.08;1836266;78;20171;-62
2021/05/27 10:44:05;;;;;;;;;;;;;;;24.05;40.29;95524.12;1836658;78;20172;-62
2021/05/27 10:46:35;;;;;;;;;;;;;;;24.12;39.30;95525.39;1836633;78;20148;-62
2021/05/27 10:49:01;;;;;;;;;;;;;;;24.23;39.39;95527.78;1832699;78;20481;-62
2021/05/27 10:51:32;;;;;;;;;;;;;;;24.33;38.52;95520.23;1836707;78;20145;-62
2021/05/27 10:54:07;;;;;;;;;;;;;;;24.32;40.55;95517.19;1836715;78;20136;-62
2021/05/27 10:56:37;;;;;;;;;;;;;;;24.50;38.73;95517.67;1836703;78;20508;-62
2021/05/27 10:59:05;;;;;;;;;;;;;;;24.61;38.25;95509.62;1836762;78;20212;-62
2021/05/27 11:01:36;;;;;;;;;;;;;;;24.74;39.05;95512.73;1836569;78;20140;-62
2021/05/27 11:04:04;;;;;;;;;;;;;;;24.70;35.29;95509.42;1836678;78;20508;-62
2021/05/27 11:06:35;;;;;;;;;;;;;;;24.67;38.17;95506.97;1837005;78;20129;-62
2021/05/27 11:11:43;;;;;;;;;;;;;;;24.93;38.79;95505.45;1842470;78;20148;-62
2021/05/27 11:14:23;;;;;;;;;;;;;;;24.96;37.24;95501.16;1842189;78;20145;-62
2021/05/27 11:17:21;;;;;;;;;;;;;;;25.09;34.67;95503.77;1842286;78;20476;-62
2021/05/27 11:20:06;;;;;;;;;;;;;;;24.97;36.25;95502.88;1842338;78;20159;-62
2021/05/27 11:22:37;;;;;;;;;;;;;;;24.88;37.25;95503.60;1841318;78;20489;-62
2021/05/27 11:25:17;;;;;;;;;;;;;;;24.98;36.64;95505.47;1842269;78;20520;-62
2021/05/27 11:28:03;;;;;;;;;;;;;;;24.95;35.63;95500.31;1841928;78;20155;-66
2021/05/27 11:30:40;;;;;;;;;;;;;;;25.09;36.48;95501.92;1842273;78;20530;-62
2021/05/27 11:33:16;;;;;;;;;;;;;;;25.32;37.38;95484.45;1842225;78;20164;-62
2021/05/27 11:35:47;;;;;;;;;;;;;;;25.55;39.73;95492.95;1842158;78;20484;-62
2021/05/27 11:38:22;;;;;;;;;;;;;;;25.77;38.89;95490.72;1842214;78;20159;-62
2021/05/27 11:40:55;;;;;;;;;;;;;;;25.98;35.79;95481.88;1842035;78;20477;-62
2021/05/27 11:43:27;;;;;;;;;;;;;;;26.14;37.14;95486.42;1842045;78;20136;-62
2021/05/27 11:45:55;;;;;;;;;;;;;;;26.27;32.62;95483.05;1842422;78;20167;-62
2021/05/27 11:51:12;;;;;;;;;;;;;;;25.99;31.15;95479.06;1814356;78;20136;-62
2021/05/27 11:53:51;;;;;;;;;;;;;;;26.25;33.89;95482.31;1842218;78;20465;-62
2021/05/27 11:56:44;;;;;;;;;;;;;;;26.53;32.99;95477.34;1842127;78;20139;-63
2021/05/27 11:59:20;;;;;;;;;;;;;;;26.68;34.77;95476.05;1842181;78;20128;-63
2021/05/27 12:01:54;;;;;;;;;;;;;;;26.47;32.61;95477.34;1842498;78;20176;-62
2021/05/27 12:04:22;;;;;;;;;;;;;;;26.17;33.05;95471.78;1841930;78;20124;-62
2021/05/27 12:06:57;;;;;;;;;;;;;;;25.78;34.56;95474.89;1841634;78;20152;-62
2021/05/27 12:09:32;;;;;;;;;;;;;;;25.72;35.21;95471.81;1836639;78;20496;-62
2021/05/27 12:12:20;;;;;;;;;;;;;;;25.77;36.46;95462.34;1836762;78;20151;-62
2021/05/27 12:14:56;;;;;;;;;;;;;;;25.52;34.29;95466.16;1836456;78;20532;-62
2021/05/27 12:17:31;;;;;;;;;;;;;;;25.46;33.63;95460.77;1836506;78;20215;-62
2021/05/27 12:20:06;;;;;;;;;;;;;;;25.11;35.90;95464.02;1836719;78;20501;-62
2021/05/27 12:23:05;;;;;;;;;;;;;;;24.74;35.48;95458.77;1836804;78;20500;-63
2021/05/27 12:25:37;;;;;;;;;;;;;;;24.38;37.28;95460.58;1836472;78;20497;-63
2021/05/27 12:28:07;;;;;;;;;;;;;;;24.13;37.95;95456.16;1836916;78;20164;-63
2021/05/27 12:30:36;;;;;;;;;;;;;;;23.98;38.13;95458.16;1835351;78;20172;-63
2021/05/27 12:33:05;;;;;;;;;;;;;;;23.84;39.25;95460.54;1836734;78;20175;-62
2021/05/27 12:35:34;;;;;;;;;;;;;;;23.64;39.30;95461.95;1836928;78;20204;-62
2021/05/27 12:38:01;;;;;;;;;;;;;;;23.53;40.23;95468.09;1836513;78;20477;-62
2021/05/27 12:40:32;;;;;;;;;;;;;;;23.53;38.95;95464.55;1836677;78;20160;-61
2021/05/27 12:43:01;;;;;;;;;;;;;;;23.53;40.58;95461.85;1836829;78;20148;-62
2021/05/27 12:45:38;;;;;;;;;;;;;;;23.52;39.64;95459.66;1836211;78;20140;-62
2021/05/27 12:48:23;;;;;;;;;;;;;;;23.54;40.80;95462.25;1836908;78;20465;-62
2021/05/27 12:50:59;;;;;;;;;;;;;;;23.74;40.86;95459.00;1836986;78;20212;-62
2021/05/27 12:53:34;;;;;;;;;;;;;;;24.02;39.36;95458.81;1836680;78;20136;-63
2021/05/27 12:56:16;;;;;;;;;;;;;;;24.63;37.67;95450.16;1837010;78;20212;-62
2021/05/27 12:58:52;;;;;;;;;;;;;;;24.72;37.72;95452.16;1836728;78;20477;-63
2021/05/27 13:01:33;;;;;;;;;;;;;;;25.02;37.37;95452.97;1836880;78;20215;-63
2021/05/27 13:04:00;;;;;;;;;;;;;;;25.49;37.82;95450.20;1814991;78;20176;-62
2021/05/27 13:06:29;;;;;;;;;;;;;;;25.64;36.76;95447.62;1836704;78;20228;-62
2021/05/27 13:08:58;;;;;;;;;;;;;;;26.27;35.28;95434.38;1840778;78;20171;-62
2021/05/27 13:11:30;;;;;;;;;;;;;;;27.01;35.41;95444.88;1841892;78;20220;-62
2021/05/27 13:13:58;;;;;;;;;;;;;;;27.60;33.77;95434.25;1842168;78;20477;-63